createdAt,value
2023-03-04T00:00:12.176Z,69.70
2023-03-04T00:02:39.423Z,69.90
2023-03-04T00:05:07.798Z,70.20
2023-03-04T00:07:34.781Z,70.30
2023-03-04T00:10:02.065Z,70.40
2023-03-04T00:12:29.057Z,70.70
2023-03-04T00:14:56.008Z,70.80
2023-03-04T00:17:23.005Z,70.90
2023-03-04T00:19:50.067Z,71.10
2023-03-04T00:22:17.049Z,71.30
2023-03-04T00:24:44.004Z,71.40
2023-03-04T00:27:11.027Z,71.70
2023-03-04T00:29:38.036Z,71.80
2023-03-04T00:32:05.359Z,71.80
2023-03-04T00:34:32.928Z,72.00
2023-03-04T00:37:01.676Z,72.10
2023-03-04T00:39:28.904Z,72.30
2023-03-04T00:41:56.218Z,72.20
2023-03-04T00:44:23.150Z,72.10
2023-03-04T00:46:50.160Z,72.20
2023-03-04T00:49:17.255Z,72.30
2023-03-04T00:51:44.244Z,72.40
2023-03-04T00:54:11.356Z,72.30
2023-03-04T00:56:38.869Z,72.40
2023-03-04T00:59:06.084Z,72.30
2023-03-04T01:01:33.124Z,72.20
2023-03-04T01:04:00.181Z,72.20
2023-03-04T01:06:27.284Z,72.20
2023-03-04T01:08:54.264Z,72.20
2023-03-04T01:11:21.532Z,72.10
2023-03-04T01:13:48.607Z,72.00
2023-03-04T01:16:16.099Z,71.90
2023-03-04T01:18:43.416Z,71.90
2023-03-04T01:21:10.687Z,71.80
2023-03-04T01:23:37.744Z,72.30
2023-03-04T01:26:05.245Z,71.60
2023-03-04T01:28:35.711Z,71.50
2023-03-04T01:31:04.186Z,71.50
2023-03-04T01:33:31.523Z,71.40
2023-03-04T01:35:58.653Z,71.30
2023-03-04T01:38:26.157Z,71.30
2023-03-04T01:40:53.818Z,71.20
2023-03-04T01:43:29.271Z,71.20
2023-03-04T01:45:57.721Z,71.20
2023-03-04T01:48:38.126Z,71.20
2023-03-04T01:51:15.410Z,71.20
2023-03-04T01:53:44.234Z,71.10
2023-03-04T01:56:20.467Z,71.10
2023-03-04T01:59:10.646Z,71.10
2023-03-04T02:01:39.634Z,71.00
2023-03-04T02:04:08.110Z,70.80
2023-03-04T02:06:40.096Z,70.90
2023-03-04T02:09:08.485Z,70.90
2023-03-04T02:11:37.992Z,71.00
2023-03-04T02:14:06.447Z,71.10
2023-03-04T02:16:33.703Z,71.10
2023-03-04T02:19:01.536Z,71.20
2023-03-04T02:21:34.740Z,71.10
2023-03-04T02:24:38.138Z,71.20
2023-03-04T02:27:05.284Z,71.20
2023-03-04T02:29:32.347Z,71.30
2023-03-04T02:31:59.646Z,71.20
2023-03-04T02:34:34.351Z,71.30
2023-03-04T02:37:04.058Z,71.20
2023-03-04T02:39:39.718Z,71.20
2023-03-04T02:42:07.605Z,71.30
2023-03-04T02:44:43.530Z,71.30
2023-03-04T02:47:14.177Z,71.30
2023-03-04T02:49:42.069Z,71.30
2023-03-04T02:52:15.101Z,71.30
2023-03-04T02:54:42.090Z,71.40
2023-03-04T02:57:12.121Z,71.40
2023-03-04T02:59:42.658Z,71.40
2023-03-04T03:02:14.138Z,71.40
2023-03-04T03:04:41.751Z,71.40
2023-03-04T03:07:12.285Z,71.40
2023-03-04T03:09:40.086Z,71.50
2023-03-04T03:12:07.393Z,71.40
2023-03-04T03:14:34.432Z,71.40
2023-03-04T03:17:03.396Z,71.40
2023-03-04T03:19:31.632Z,71.50
2023-03-04T03:22:00.908Z,71.50
2023-03-04T03:24:28.065Z,71.40
2023-03-04T03:26:56.271Z,71.50
2023-03-04T03:29:23.480Z,71.50
2023-03-04T03:31:50.538Z,71.60
2023-03-04T03:34:18.976Z,71.50
2023-03-04T03:36:45.917Z,71.50
2023-03-04T03:39:12.796Z,71.50
2023-03-04T03:41:39.930Z,71.40
2023-03-04T03:44:06.924Z,71.50
2023-03-04T03:46:35.233Z,71.60
2023-03-04T03:49:02.451Z,71.60
2023-03-04T03:51:29.562Z,71.50
2023-03-04T03:53:56.584Z,71.50
2023-03-04T03:56:23.496Z,71.60
2023-03-04T03:58:50.477Z,71.60
2023-03-04T04:01:17.526Z,71.50
2023-03-04T04:03:44.453Z,71.60
2023-03-04T04:06:11.452Z,71.60
2023-03-04T04:08:38.653Z,71.60
2023-03-04T04:11:05.731Z,71.60
2023-03-04T04:13:32.765Z,71.50
2023-03-04T04:15:59.875Z,71.60
2023-03-04T04:18:27.182Z,71.60
2023-03-04T04:20:54.726Z,71.50
2023-03-04T04:23:22.092Z,71.50
2023-03-04T04:25:49.017Z,71.50
2023-03-04T04:28:16.088Z,71.60
2023-03-04T04:30:43.129Z,71.70
2023-03-04T04:33:10.587Z,71.60
2023-03-04T04:35:38.806Z,71.70
2023-03-04T04:38:07.721Z,72.40
2023-03-04T04:40:34.751Z,71.70
2023-03-04T04:43:02.135Z,71.60
2023-03-04T04:45:29.372Z,71.70
2023-03-04T04:47:57.398Z,71.70
2023-03-04T04:50:25.694Z,71.70
2023-03-04T04:52:52.781Z,71.70
2023-03-04T04:55:19.803Z,71.60
2023-03-04T04:57:46.806Z,71.60
2023-03-04T05:00:14.524Z,71.60
2023-03-04T05:02:41.459Z,71.50
2023-03-04T05:05:08.944Z,71.50
2023-03-04T05:07:36.264Z,71.70
2023-03-04T05:10:04.880Z,71.60
2023-03-04T05:12:31.863Z,71.60
2023-03-04T05:14:59.022Z,71.60
2023-03-04T05:17:26.128Z,71.70
2023-03-04T05:19:53.087Z,71.70
2023-03-04T05:22:20.127Z,71.70
2023-03-04T05:24:47.162Z,71.60
2023-03-04T05:27:14.232Z,71.60
2023-03-04T05:29:43.118Z,71.60
2023-03-04T05:32:10.164Z,71.70
2023-03-04T05:34:37.257Z,71.70
2023-03-04T05:37:04.232Z,71.80
2023-03-04T05:39:31.138Z,71.80
2023-03-04T05:41:58.149Z,71.90
2023-03-04T05:44:25.264Z,71.90
2023-03-04T05:46:52.311Z,72.10
2023-03-04T05:49:20.178Z,72.20
2023-03-04T05:51:47.129Z,72.20
2023-03-04T05:54:14.106Z,72.30
2023-03-04T05:56:41.128Z,72.40
2023-03-04T05:59:08.196Z,72.40
2023-03-04T06:01:35.321Z,72.40
2023-03-04T06:04:02.489Z,72.40
2023-03-04T06:06:29.648Z,72.50
2023-03-04T06:08:56.799Z,72.50
2023-03-04T06:11:23.622Z,72.60
2023-03-04T06:13:50.639Z,72.60
2023-03-04T06:16:17.694Z,72.70
2023-03-04T06:18:44.694Z,72.80
2023-03-04T06:21:11.751Z,73.00
2023-03-04T06:23:38.764Z,73.10
2023-03-04T06:26:09.498Z,73.20
2023-03-04T06:28:36.525Z,73.50
2023-03-04T06:31:03.451Z,73.50
2023-03-04T06:33:30.613Z,73.60
2023-03-04T06:35:58.019Z,73.70
2023-03-04T06:38:26.308Z,74.00
2023-03-04T06:40:57.032Z,74.30
2023-03-04T06:43:24.609Z,74.40
2023-03-04T06:45:51.827Z,74.60
2023-03-04T06:48:18.866Z,74.60
2023-03-04T06:50:46.176Z,74.70
2023-03-04T06:53:13.155Z,74.90
2023-03-04T06:55:40.010Z,75.10
2023-03-04T06:58:07.124Z,75.30
2023-03-04T07:00:34.185Z,75.30
2023-03-04T07:03:01.797Z,75.10
2023-03-04T07:05:30.060Z,75.40
2023-03-04T07:07:57.101Z,75.70
2023-03-04T07:10:24.006Z,75.70
2023-03-04T07:12:51.076Z,75.90
2023-03-04T07:15:18.220Z,76.10
2023-03-04T07:17:45.193Z,76.30
2023-03-04T07:20:12.631Z,76.30
2023-03-04T07:22:39.587Z,76.40
2023-03-04T07:25:07.393Z,76.40
2023-03-04T07:27:34.596Z,76.60
2023-03-04T07:30:02.051Z,76.70
2023-03-04T07:32:30.178Z,77.70
2023-03-04T07:34:57.324Z,77.30
2023-03-04T07:37:24.786Z,77.70
2023-03-04T07:39:51.683Z,78.00
2023-03-04T07:42:18.611Z,78.40
2023-03-04T07:44:53.447Z,78.60
2023-03-04T07:47:20.708Z,78.80
2023-03-04T07:49:47.870Z,79.10
2023-03-04T07:52:15.053Z,79.50
2023-03-04T07:54:42.096Z,79.80
2023-03-04T07:57:09.090Z,79.70
2023-03-04T07:59:36.134Z,79.70
2023-03-04T08:02:03.221Z,79.80
2023-03-04T08:04:30.312Z,79.60
2023-03-04T08:06:57.580Z,79.50
2023-03-04T08:09:24.669Z,79.80
2023-03-04T08:11:51.654Z,79.70
2023-03-04T08:14:18.739Z,79.30
2023-03-04T08:16:45.775Z,78.90
2023-03-04T08:19:13.170Z,78.70
2023-03-04T08:21:40.246Z,78.50
2023-03-04T08:24:10.270Z,78.20
2023-03-04T08:26:42.620Z,77.90
2023-03-04T08:29:15.107Z,77.60
2023-03-04T08:31:42.877Z,77.30
2023-03-04T08:34:10.928Z,77.10
2023-03-04T08:36:38.010Z,76.90
2023-03-04T08:39:05.850Z,76.70
2023-03-04T08:41:33.123Z,76.40
2023-03-04T08:44:00.952Z,76.10
2023-03-04T08:46:28.836Z,75.90
2023-03-04T08:48:56.162Z,75.80
2023-03-04T08:51:23.670Z,75.50
2023-03-04T08:53:50.691Z,75.30
2023-03-04T08:56:18.159Z,74.80
2023-03-04T08:58:45.344Z,74.50
2023-03-04T09:01:14.700Z,74.40
2023-03-04T09:03:42.957Z,74.20
2023-03-04T09:06:14.324Z,73.80
2023-03-04T09:08:42.030Z,73.30
2023-03-04T09:11:09.472Z,72.90
2023-03-04T09:13:36.937Z,72.20
2023-03-04T09:16:09.776Z,71.60
2023-03-04T09:18:36.909Z,71.20
2023-03-04T09:21:04.272Z,70.60
2023-03-04T09:23:31.108Z,70.20
2023-03-04T09:25:58.207Z,69.90
2023-03-04T09:28:25.319Z,69.50
2023-03-04T09:30:52.458Z,69.20
2023-03-04T09:33:19.667Z,68.30
2023-03-04T09:35:48.815Z,68.10
2023-03-04T09:38:15.966Z,67.60
2023-03-04T09:40:47.342Z,67.00
2023-03-04T09:43:29.303Z,66.50
2023-03-04T09:46:07.208Z,65.90
2023-03-04T09:48:50.453Z,66.00
2023-03-04T09:51:52.994Z,65.80
2023-03-04T09:54:57.290Z,65.90
2023-03-04T09:57:49.009Z,65.40
2023-03-04T10:00:20.269Z,65.40
2023-03-04T10:03:14.214Z,65.50
2023-03-04T10:06:01.576Z,65.00
2023-03-04T10:08:43.599Z,64.50
2023-03-04T10:11:18.424Z,64.50
2023-03-04T10:13:58.346Z,64.20
2023-03-04T10:16:35.983Z,64.00
2023-03-04T10:19:30.425Z,64.00
2023-03-04T10:21:57.850Z,63.50
2023-03-04T10:24:29.643Z,63.60
2023-03-04T10:27:05.617Z,63.20
2023-03-04T10:29:33.954Z,62.90
2023-03-04T10:32:01.034Z,63.10
2023-03-04T10:34:28.180Z,62.70
2023-03-04T10:37:07.576Z,62.60
2023-03-04T10:39:45.738Z,62.00
2023-03-04T10:42:15.826Z,61.80
2023-03-04T10:44:56.359Z,61.30
2023-03-04T10:47:27.062Z,60.70
2023-03-04T10:50:04.365Z,60.60
2023-03-04T10:52:47.839Z,60.10
2023-03-04T10:55:42.702Z,59.90
2023-03-04T10:58:15.828Z,59.70
2023-03-04T11:00:43.229Z,59.30
2023-03-04T11:03:29.809Z,59.20
2023-03-04T11:06:08.174Z,58.80
2023-03-04T11:08:35.348Z,59.20
2023-03-04T11:11:02.473Z,59.30
2023-03-04T11:13:31.602Z,58.80
2023-03-04T11:16:06.610Z,58.40
2023-03-04T11:18:41.168Z,58.10
2023-03-04T11:21:15.857Z,58.30
2023-03-04T11:24:00.034Z,58.40
2023-03-04T11:26:50.316Z,58.20
2023-03-04T11:29:46.088Z,58.20
2023-03-04T11:32:22.097Z,58.20
2023-03-04T11:35:20.484Z,58.20
2023-03-04T11:38:15.302Z,57.90
2023-03-04T11:40:58.055Z,57.70
2023-03-04T11:43:42.163Z,57.40
2023-03-04T11:46:32.018Z,57.20
2023-03-04T11:49:26.504Z,57.10
2023-03-04T11:52:57.002Z,57.10
2023-03-04T11:56:01.133Z,56.60
2023-03-04T11:59:04.417Z,56.20
2023-03-04T12:02:18.300Z,55.90
2023-03-04T12:05:09.789Z,55.60
2023-03-04T12:08:38.082Z,55.90
2023-03-04T12:11:18.463Z,55.00
2023-03-04T12:14:09.429Z,55.30
2023-03-04T12:16:50.575Z,54.80
2023-03-04T12:20:06.128Z,54.40
2023-03-04T12:22:44.084Z,54.40
2023-03-04T12:25:23.312Z,54.50
2023-03-04T12:28:16.130Z,54.20
2023-03-04T12:31:11.461Z,54.00
2023-03-04T12:34:22.678Z,53.90
2023-03-04T12:37:20.851Z,54.00
2023-03-04T12:40:30.605Z,54.00
2023-03-04T12:43:09.835Z,54.40
2023-03-04T12:45:49.689Z,54.40
2023-03-04T12:48:33.411Z,54.10
2023-03-04T12:51:05.499Z,53.80
2023-03-04T12:54:05.862Z,53.80
2023-03-04T12:56:50.820Z,53.30
2023-03-04T12:59:21.153Z,53.20
2023-03-04T13:02:20.602Z,53.10
2023-03-04T13:05:45.117Z,52.30
2023-03-04T13:08:51.328Z,51.90
2023-03-04T13:11:28.103Z,51.70
2023-03-04T13:14:18.186Z,51.70
2023-03-04T13:16:48.801Z,51.40
2023-03-04T13:19:52.994Z,51.50
2023-03-04T13:22:33.687Z,50.80
2023-03-04T13:25:32.663Z,50.90
2023-03-04T13:28:05.358Z,50.90
2023-03-04T13:30:32.409Z,50.50
2023-03-04T13:33:22.054Z,50.60
2023-03-04T13:35:55.150Z,49.90
2023-03-04T13:38:28.242Z,49.80
2023-03-04T13:41:18.535Z,49.90
2023-03-04T13:43:56.340Z,49.30
2023-03-04T13:46:23.924Z,49.50
2023-03-04T13:48:51.130Z,49.70
2023-03-04T13:51:40.377Z,49.80
2023-03-04T13:54:32.164Z,49.50
2023-03-04T13:57:02.903Z,49.70
2023-03-04T13:59:53.169Z,49.70
2023-03-04T14:02:26.112Z,49.60
2023-03-04T14:05:02.038Z,49.80
2023-03-04T14:07:36.524Z,49.50
2023-03-04T14:10:12.560Z,49.80
2023-03-04T14:12:48.310Z,49.90
2023-03-04T14:15:24.435Z,49.50
2023-03-04T14:17:58.569Z,49.80
2023-03-04T14:20:42.599Z,49.50
2023-03-04T14:23:31.508Z,49.50
2023-03-04T14:26:15.874Z,49.60
2023-03-04T14:28:48.464Z,49.50
2023-03-04T14:31:22.217Z,49.70
2023-03-04T14:33:59.753Z,49.70
2023-03-04T14:36:27.220Z,49.80
2023-03-04T14:38:58.959Z,50.10
2023-03-04T14:41:36.047Z,49.90
2023-03-04T14:44:37.917Z,49.90
2023-03-04T14:47:22.236Z,50.00
2023-03-04T14:49:50.072Z,50.20
2023-03-04T14:52:37.295Z,50.30
2023-03-04T14:55:16.595Z,50.40
2023-03-04T14:57:47.187Z,50.70
2023-03-04T15:00:20.101Z,50.90
2023-03-04T15:03:07.972Z,51.10
2023-03-04T15:05:36.344Z,51.10
2023-03-04T15:08:06.809Z,51.20
2023-03-04T15:10:38.637Z,51.40
2023-03-04T15:13:09.282Z,51.50
2023-03-04T15:15:48.823Z,51.60
2023-03-04T15:18:26.717Z,52.00
2023-03-04T15:21:00.654Z,52.10
2023-03-04T15:23:31.642Z,52.20
2023-03-04T15:26:02.229Z,52.30
2023-03-04T15:28:36.758Z,52.30
2023-03-04T15:31:06.473Z,52.80
2023-03-04T15:33:34.104Z,52.20
2023-03-04T15:36:02.770Z,52.30
2023-03-04T15:38:30.555Z,52.30
2023-03-04T15:40:59.457Z,52.10
2023-03-04T15:43:27.158Z,52.00
2023-03-04T15:45:54.325Z,51.90
2023-03-04T15:48:21.741Z,52.00
2023-03-04T15:50:54.079Z,52.00
2023-03-04T15:53:39.950Z,52.00
2023-03-04T15:56:13.843Z,51.70
2023-03-04T15:58:41.045Z,51.70
2023-03-04T16:01:11.038Z,51.40
2023-03-04T16:03:38.257Z,51.10
2023-03-04T16:06:11.199Z,50.50
2023-03-04T16:08:39.337Z,49.80
2023-03-04T16:11:06.757Z,49.40
2023-03-04T16:13:33.790Z,49.10
2023-03-04T16:16:00.916Z,48.50
2023-03-04T16:18:27.874Z,48.00
2023-03-04T16:20:55.086Z,47.90
2023-03-04T16:23:24.613Z,47.80
2023-03-04T16:25:55.373Z,47.90
2023-03-04T16:28:23.318Z,47.80
2023-03-04T16:30:50.972Z,47.80
2023-03-04T16:33:17.980Z,47.70
2023-03-04T16:35:46.382Z,48.50
2023-03-04T16:38:28.023Z,47.90
2023-03-04T16:40:56.341Z,47.70
2023-03-04T16:43:23.847Z,47.90
2023-03-04T16:45:51.674Z,48.20
2023-03-04T16:48:20.250Z,48.20
2023-03-04T16:50:47.676Z,48.30
2023-03-04T16:53:28.088Z,48.70
2023-03-04T16:55:55.161Z,48.70
2023-03-04T16:58:22.295Z,48.90
2023-03-04T17:00:49.397Z,48.90
2023-03-04T17:03:16.516Z,49.00
2023-03-04T17:05:44.254Z,49.20
2023-03-04T17:08:11.385Z,49.30
2023-03-04T17:10:38.438Z,49.30
2023-03-04T17:13:06.329Z,49.40
2023-03-04T17:15:33.311Z,49.30
2023-03-04T17:18:00.404Z,49.40
2023-03-04T17:20:27.496Z,49.60
2023-03-04T17:22:54.617Z,49.70
2023-03-04T17:25:21.532Z,49.80
2023-03-04T17:27:48.553Z,49.90
2023-03-04T17:30:15.865Z,50.00
2023-03-04T17:32:42.990Z,50.10
2023-03-04T17:35:11.389Z,50.20
2023-03-04T17:37:38.632Z,50.40
2023-03-04T17:40:08.741Z,50.60
2023-03-04T17:42:36.082Z,50.80
2023-03-04T17:45:03.563Z,51.00
2023-03-04T17:47:31.397Z,51.00
2023-03-04T17:49:58.571Z,51.00
2023-03-04T17:52:25.576Z,51.20
2023-03-04T17:54:52.594Z,51.30
2023-03-04T17:57:19.676Z,51.30
2023-03-04T17:59:46.704Z,51.50
2023-03-04T18:02:16.735Z,51.60
2023-03-04T18:04:45.940Z,51.70
2023-03-04T18:07:13.030Z,51.70
2023-03-04T18:09:39.997Z,51.90
2023-03-04T18:12:07.461Z,52.00
2023-03-04T18:17:15.510Z,52.10
2023-03-04T18:19:42.647Z,52.20
2023-03-04T18:22:09.799Z,52.30
2023-03-04T18:24:39.513Z,52.40
2023-03-04T18:27:06.837Z,52.50
2023-03-04T18:32:18.811Z,52.60
2023-03-04T18:34:45.796Z,52.80
2023-03-04T18:37:12.837Z,52.70
2023-03-04T18:39:39.804Z,52.80
2023-03-04T18:42:06.761Z,52.90
2023-03-04T18:44:33.977Z,53.10
2023-03-04T18:47:01.424Z,53.10
2023-03-04T18:49:28.375Z,53.10
2023-03-04T18:51:55.664Z,53.20
2023-03-04T18:54:22.802Z,53.30
2023-03-04T18:56:55.238Z,53.30
2023-03-04T18:59:31.368Z,53.30
2023-03-04T19:02:04.480Z,53.50
2023-03-04T19:04:31.933Z,53.50
2023-03-04T19:07:00.283Z,53.50
2023-03-04T19:09:27.575Z,53.70
2023-03-04T19:11:54.513Z,53.80
2023-03-04T19:14:21.985Z,53.90
2023-03-04T19:16:48.902Z,53.90
2023-03-04T19:19:16.208Z,54.20
2023-03-04T19:21:43.411Z,54.10
2023-03-04T19:24:10.349Z,54.70
2023-03-04T19:26:37.257Z,54.30
2023-03-04T19:29:05.582Z,54.30
2023-03-04T19:31:33.041Z,54.50
2023-03-04T19:34:00.113Z,54.70
2023-03-04T19:36:27.154Z,54.70
2023-03-04T19:38:55.435Z,54.60
2023-03-04T19:41:22.958Z,54.60
2023-03-04T19:43:50.378Z,54.80
2023-03-04T19:46:17.676Z,54.70
2023-03-04T19:48:45.098Z,54.70
2023-03-04T19:51:26.111Z,54.90
2023-03-04T19:53:54.480Z,54.90
2023-03-04T19:56:22.716Z,54.90
2023-03-04T19:58:50.505Z,55.10
2023-03-04T20:01:30.506Z,55.20
2023-03-04T20:04:01.113Z,55.40
2023-03-04T20:06:28.883Z,55.50
2023-03-04T20:08:59.045Z,55.60
2023-03-04T20:11:27.370Z,55.60
2023-03-04T20:13:55.066Z,55.70
2023-03-04T20:16:22.119Z,55.80
2023-03-04T20:18:49.115Z,55.70
2023-03-04T20:21:16.936Z,55.70
2023-03-04T20:23:44.279Z,55.80
2023-03-04T20:26:12.004Z,55.80
2023-03-04T20:28:50.337Z,55.90
2023-03-04T20:31:24.160Z,55.90
2023-03-04T20:33:53.082Z,56.10
2023-03-04T20:36:23.052Z,56.10
2023-03-04T20:38:52.416Z,56.10
2023-03-04T20:41:26.370Z,56.20
2023-03-04T20:43:53.405Z,56.30
2023-03-04T20:46:39.628Z,56.20
2023-03-04T20:49:15.073Z,56.10
2023-03-04T20:51:42.869Z,56.00
2023-03-04T20:54:10.429Z,55.80
2023-03-04T20:56:38.880Z,55.60
2023-03-04T20:59:09.371Z,55.40
2023-03-04T21:01:41.802Z,55.20
2023-03-04T21:04:08.974Z,54.70
2023-03-04T21:06:38.417Z,54.40
2023-03-04T21:09:09.157Z,54.00
2023-03-04T21:11:40.545Z,53.80
2023-03-04T21:14:26.226Z,53.50
2023-03-04T21:16:59.578Z,53.20
2023-03-04T21:19:39.800Z,52.90
2023-03-04T21:22:06.974Z,52.90
2023-03-04T21:24:36.293Z,53.00
2023-03-04T21:27:04.493Z,52.90
2023-03-04T21:29:31.463Z,52.90
2023-03-04T21:32:23.251Z,52.80
2023-03-04T21:34:52.362Z,52.80
2023-03-04T21:37:21.824Z,52.90
2023-03-04T21:39:48.763Z,52.80
2023-03-04T21:42:15.733Z,52.90
2023-03-04T21:44:49.596Z,52.90
2023-03-04T21:47:17.843Z,52.80
2023-03-04T21:49:44.964Z,52.80
2023-03-04T21:52:13.006Z,52.80
2023-03-04T21:54:39.882Z,52.60
2023-03-04T21:57:06.832Z,52.60
2023-03-04T21:59:33.710Z,53.20
2023-03-04T22:02:01.781Z,52.70
2023-03-04T22:04:28.751Z,52.70
2023-03-04T22:06:55.628Z,52.70
2023-03-04T22:09:22.750Z,52.60
2023-03-04T22:11:49.799Z,52.50
2023-03-04T22:14:16.724Z,52.40
2023-03-04T22:16:59.038Z,52.40
2023-03-04T22:19:31.594Z,52.40
2023-03-04T22:21:59.217Z,52.30
2023-03-04T22:24:26.513Z,52.10
2023-03-04T22:26:53.682Z,52.00
2023-03-04T22:29:20.878Z,51.90
2023-03-04T22:31:48.097Z,51.80
2023-03-04T22:34:15.811Z,51.90
2023-03-04T22:36:46.429Z,51.90
2023-03-04T22:39:19.198Z,51.90
2023-03-04T22:41:46.736Z,52.00
2023-03-04T22:44:14.004Z,52.10
2023-03-04T22:46:41.707Z,52.30
2023-03-04T22:49:12.775Z,52.50
2023-03-04T22:51:42.390Z,52.70
2023-03-04T22:54:17.690Z,52.90
2023-03-04T22:56:45.207Z,53.10
2023-03-04T22:59:12.814Z,53.30
2023-03-04T23:01:40.209Z,53.60
2023-03-04T23:04:07.699Z,53.90
2023-03-04T23:06:35.013Z,54.30
2023-03-04T23:09:02.066Z,54.60
2023-03-04T23:11:32.836Z,54.90
2023-03-04T23:14:02.042Z,55.10
2023-03-04T23:16:29.293Z,55.40
2023-03-04T23:18:59.112Z,55.50
2023-03-04T23:21:28.368Z,55.70
2023-03-04T23:23:55.456Z,55.90
2023-03-04T23:26:29.011Z,56.10
2023-03-04T23:28:57.195Z,56.30
2023-03-04T23:31:25.474Z,56.30
2023-03-04T23:33:57.280Z,56.30
2023-03-04T23:36:29.233Z,56.30
2023-03-04T23:38:57.341Z,56.50
2023-03-04T23:41:27.660Z,56.40
2023-03-04T23:43:57.394Z,56.50
2023-03-04T23:46:25.663Z,56.70
2023-03-04T23:48:54.291Z,56.80
2023-03-04T23:51:26.896Z,56.80
2023-03-04T23:53:54.900Z,57.10
2023-03-04T23:56:25.938Z,57.40
2023-03-04T23:58:53.493Z,57.70
